OIAG  Aghajari  Airport

Aghajari,, Iran

Add Bookmark
ICAO OIAG
Type Airport
Status Operational
Latitude
30° 44' 39" N
30.744400
Longitude
49° 40' 37" E
49.677200
Local (DST + 5) UTC (GMT + 4)
Aug 5, 2015 08:50 Aug 5, 2015 04:20
Sunrise-Sunset Local UTC
Begin Civil Twilight 06:04 01:34
Sunrise 06:30 02:00
Sunset 08:04 15:34
End Civil Twilight 08:30 16:00
VFR
VFR
MVFR
MVFR
IFR
IFR
LIFR
LIFR
Unknown
Unavailable

Current Weather

METAR Observed VFR
OIAG 050400Z 12004KT 9999 SCT035TCU 32/16 Q1002 Wed, Aug 5, 2015 @ 04:00 UTC
(20 Minutes ago)
Visual Flight Rules
Wind Visibility Clouds Conditions
120° at 4 knots (7 kph) 10 km or more
  • Scattered at 3,500 ft AGL
  • No significant weather
Temperatures Readings Precipitation
Current Temp
32°C
90°F
Dewpoint
16°C
61°F
Humidity 38%
Altimeter 29.59" Hg
Sea Level Pressure 1,002 mb
Field Elevation
29 m
95 ft
None Recorded

Additional weather within a 92.6km radius of OIAG

Map ICAO Location
OIAM 54.4km W/SW (248°)
VFR
VFR
MVFR
MVFR
IFR
IFR
LIFR
LIFR
Unknown
Unavailable
-
-

CheckWX.com is intended as a tool to help pilots better visualize weather data. It is not intended as a substitute for an official weather briefing obtained from a Flight Service Station. CheckWX.com does not meet the FAA requirements for an official pre-flight weather briefing. Therefore, it's important that pilots still call and obtain an official FSS pre-flight weather briefing.

© 2007-2015 CheckWX.com
04:20:11 UTC